Time;durP1;ratioP1;P1;durP2;ratioP2;P2;SDS_P1;SDS_P2;PMS_P1;PMS_P2;Temp;Humidity;BMP_temperature;BMP_pressure;BME280_temperature;BME280_humidity;BME280_pressure;Samples;Min_cycle;Max_cycle;Signal;HPM_P1;HPM_P2
2022/05/15 00:00:41;;;;;;;;;;;;;;;21.89;63.35;99032.25;2072873;28;20027;-49
2022/05/15 00:01:42;;;;;;;;;;;;;;;21.90;63.47;99031.22;2073070;28;20434;-48
2022/05/15 00:02:44;;;;;;;;;;;;;;;21.88;63.56;99031.44;2074842;28;19940;-48
2022/05/15 00:03:44;;;;;;;;;;;;;;;21.88;63.90;99031.44;2073689;28;19925;-48
2022/05/15 00:04:46;;;;;;;;;;;;;;;21.87;63.74;99027.09;2075396;28;19955;-47
2022/05/15 00:05:50;;;;;;;;;;;;;;;21.87;63.79;99029.78;2074689;28;19929;-48
2022/05/15 00:06:52;;;;;;;;;;;;;;;21.87;63.53;99024.41;2071127;28;19976;-48
2022/05/15 00:07:56;;;;;;;;;;;;;;;21.88;63.76;99026.03;2074923;28;20405;-48
2022/05/15 00:08:58;;;;;;;;;;;;;;;21.90;63.65;99029.38;2075415;28;19988;-48
2022/05/15 00:09:59;;;;;;;;;;;;;;;21.89;63.66;99032.25;2071990;28;19933;-50
2022/05/15 00:11:01;;;;;;;;;;;;;;;21.87;63.74;99029.78;2074151;28;19929;-49
2022/05/15 00:12:04;;;;;;;;;;;;;;;21.88;63.77;99028.75;2074783;28;19933;-51
2022/05/15 00:13:05;;;;;;;;;;;;;;;21.87;63.88;99032.50;2073066;28;19929;-49
2022/05/15 00:14:07;;;;;;;;;;;;;;;21.87;63.95;99035.19;2074814;28;19925;-50
2022/05/15 00:15:08;;;;;;;;;;;;;;;21.87;64.01;99035.19;2074117;28;19929;-50
2022/05/15 00:16:10;;;;;;;;;;;;;;;21.85;64.23;99039.97;2075277;28;19951;-51
2022/05/15 00:17:10;;;;;;;;;;;;;;;21.88;64.00;99038.72;2074502;28;20709;-48
2022/05/15 00:18:12;;;;;;;;;;;;;;;21.88;63.85;99038.72;2074952;28;19940;-49
2022/05/15 00:19:12;;;;;;;;;;;;;;;21.88;63.88;99034.16;2074418;28;19929;-48
2022/05/15 00:20:14;;;;;;;;;;;;;;;21.86;64.18;99034.34;2073379;28;20052;-49
2022/05/15 00:21:15;;;;;;;;;;;;;;;21.89;64.09;99035.78;2074040;28;19932;-50
2022/05/15 00:22:16;;;;;;;;;;;;;;;21.88;63.98;99042.25;2071397;28;20051;-48
2022/05/15 00:23:19;;;;;;;;;;;;;;;21.89;64.17;99037.66;2073478;28;20402;-49
2022/05/15 00:24:21;;;;;;;;;;;;;;;21.89;64.05;99040.38;2076059;28;19929;-48
2022/05/15 00:25:22;;;;;;;;;;;;;;;21.87;64.18;99037.91;2074247;28;19936;-49
2022/05/15 00:26:23;;;;;;;;;;;;;;;21.85;64.46;99035.41;2075623;28;19933;-48
2022/05/15 00:27:24;;;;;;;;;;;;;;;21.85;64.21;99038.09;2074062;28;20630;-48
2022/05/15 00:28:25;;;;;;;;;;;;;;;21.86;64.35;99036.22;2071357;28;19932;-49
2022/05/15 00:29:26;;;;;;;;;;;;;;;21.86;64.32;99031.66;2074280;28;19933;-51
2022/05/15 00:30:28;;;;;;;;;;;;;;;21.87;64.29;99035.19;2074570;28;19935;-49
2022/05/15 00:31:28;;;;;;;;;;;;;;;21.86;64.24;99039.75;2072372;28;19968;-50
2022/05/15 00:32:32;;;;;;;;;;;;;;;21.85;64.52;99039.97;2072169;28;22482;-50
2022/05/15 00:33:33;;;;;;;;;;;;;;;21.86;63.87;99031.66;2075976;28;19933;-49
2022/05/15 00:34:34;;;;;;;;;;;;;;;21.85;64.47;99038.09;2076645;28;19925;-49
2022/05/15 00:35:37;;;;;;;;;;;;;;;21.87;64.33;99029.78;2073056;28;19932;-49
2022/05/15 00:36:37;;;;;;;;;;;;;;;21.85;64.76;99032.69;2076200;28;19925;-50
2022/05/15 00:37:39;;;;;;;;;;;;;;;21.84;64.28;99032.91;2073571;28;19929;-50
2022/05/15 00:38:42;;;;;;;;;;;;;;;21.86;64.38;99036.22;2075166;28;20306;-49
2022/05/15 00:39:42;;;;;;;;;;;;;;;21.86;64.47;99036.22;2076730;28;20606;-49
2022/05/15 00:40:45;;;;;;;;;;;;;;;21.84;64.77;99041.00;2074512;28;19925;-52
2022/05/15 00:41:46;;;;;;;;;;;;;;;21.85;64.34;99034.56;2071672;28;19929;-49
2022/05/15 00:42:47;;;;;;;;;;;;;;;21.84;64.47;99035.59;2074694;28;20009;-50
2022/05/15 00:43:49;;;;;;;;;;;;;;;21.85;64.58;99034.56;2076430;28;19964;-49
2022/05/15 00:44:51;;;;;;;;;;;;;;;21.85;64.46;99035.41;2077107;28;20417;-48
2022/05/15 00:45:52;;;;;;;;;;;;;;;21.85;64.79;99031.88;2074937;28;19979;-48
2022/05/15 00:46:53;;;;;;;;;;;;;;;21.83;64.64;99034.78;2073144;28;19932;-51
2022/05/15 00:47:54;;;;;;;;;;;;;;;21.86;64.55;99033.53;2075045;28;19936;-49
2022/05/15 00:48:57;;;;;;;;;;;;;;;21.86;64.82;99036.22;2073517;28;20008;-49
2022/05/15 00:49:58;;;;;;;;;;;;;;;21.87;64.09;99035.19;2063792;28;19990;-52
2022/05/15 00:51:01;;;;;;;;;;;;;;;21.84;64.56;99030.19;2072801;28;19933;-51
2022/05/15 00:52:04;;;;;;;;;;;;;;;21.85;64.54;99026.47;2069854;28;20391;-50
2022/05/15 00:53:08;;;;;;;;;;;;;;;21.85;64.33;99038.09;2073811;28;19943;-51
2022/05/15 00:54:12;;;;;;;;;;;;;;;21.84;64.67;99027.50;2075017;28;20056;-50
2022/05/15 00:55:16;;;;;;;;;;;;;;;21.83;64.63;99025.84;2074724;28;20556;-49
2022/05/15 00:56:18;;;;;;;;;;;;;;;21.83;64.52;99026.69;2073594;28;20028;-50
2022/05/15 00:57:22;;;;;;;;;;;;;;;21.86;64.53;99033.53;2072708;28;20014;-49
2022/05/15 00:58:26;;;;;;;;;;;;;;;21.86;64.46;99028.13;2074038;28;19933;-50
2022/05/15 00:59:29;;;;;;;;;;;;;;;21.84;65.15;99028.34;2072203;28;20540;-51
2022/05/15 01:00:31;;;;;;;;;;;;;;;21.86;64.28;99028.13;2072655;28;20041;-49
2022/05/15 01:01:33;;;;;;;;;;;;;;;21.84;64.39;99024.81;2075082;28;19929;-48
2022/05/15 01:02:37;;;;;;;;;;;;;;;21.85;64.81;99037.28;2074907;28;20507;-49
2022/05/15 01:03:38;;;;;;;;;;;;;;;21.84;64.71;99032.91;2074814;28;19936;-50
2022/05/15 01:04:39;;;;;;;;;;;;;;;21.83;64.53;99033.94;2073782;28;19967;-50
2022/05/15 01:05:42;;;;;;;;;;;;;;;21.85;64.64;99029.19;2073011;28;19933;-52
2022/05/15 01:06:43;;;;;;;;;;;;;;;21.84;65.30;99033.75;2073315;28;19929;-51
2022/05/15 01:07:44;;;;;;;;;;;;;;;21.85;64.63;99030.00;2074341;28;20018;-50
2022/05/15 01:08:45;;;;;;;;;;;;;;;21.86;64.67;99031.66;2073023;28;19956;-49
2022/05/15 01:09:50;;;;;;;;;;;;;;;21.84;64.88;99031.06;2074530;28;19928;-48
2022/05/15 01:10:52;;;;;;;;;;;;;;;21.82;65.25;99030.44;2075389;28;20094;-49
2022/05/15 01:11:53;;;;;;;;;;;;;;;21.82;64.81;99037.72;2076094;28;20379;-46
2022/05/15 01:12:57;;;;;;;;;;;;;;;21.82;64.77;99035.00;2073374;28;20295;-49
2022/05/15 01:13:58;;;;;;;;;;;;;;;21.84;64.53;99036.44;2075221;28;20059;-49
2022/05/15 01:14:59;;;;;;;;;;;;;;;21.85;64.91;99026.47;2076193;28;19929;-52
2022/05/15 01:16:01;;;;;;;;;;;;;;;21.84;64.82;99030.19;2076317;28;19935;-48
2022/05/15 01:17:02;;;;;;;;;;;;;;;21.83;64.64;99033.94;2073897;28;20045;-49
2022/05/15 01:18:03;;;;;;;;;;;;;;;21.84;64.61;99030.19;2075044;28;20514;-51
2022/05/15 01:19:04;;;;;;;;;;;;;;;21.84;64.73;99035.59;2074893;28;19925;-48
2022/05/15 01:20:07;;;;;;;;;;;;;;;21.82;65.19;99033.13;2071746;28;20392;-51
2022/05/15 01:21:19;;;;;;;;;;;;;;;21.82;65.02;99035.00;2069800;28;20013;-50
2022/05/15 01:22:22;;;;;;;;;;;;;;;21.85;64.39;99034.56;2072457;28;20395;-50
2022/05/15 01:23:22;;;;;;;;;;;;;;;21.85;64.33;99030.00;2070410;28;19929;-50
2022/05/15 01:24:24;;;;;;;;;;;;;;;21.85;64.30;99031.88;2076239;28;19955;-51
2022/05/15 01:25:26;;;;;;;;;;;;;;;21.84;64.51;99030.19;2075756;28;19974;-50
2022/05/15 01:26:28;;;;;;;;;;;;;;;21.82;64.65;99033.13;2068604;28;19929;-49
2022/05/15 01:27:30;;;;;;;;;;;;;;;21.82;64.63;99029.59;2073258;28;19937;-48
2022/05/15 01:28:32;;;;;;;;;;;;;;;21.81;64.60;99036.03;2073941;28;20599;-49
2022/05/15 01:29:33;;;;;;;;;;;;;;;21.82;64.78;99032.31;2074853;28;19967;-51
2022/05/15 01:30:37;;;;;;;;;;;;;;;21.82;64.86;99041.22;2074391;28;19931;-51
2022/05/15 01:31:37;;;;;;;;;;;;;;;21.82;64.58;99040.41;2075572;28;19925;-50
2022/05/15 01:32:39;;;;;;;;;;;;;;;21.83;64.91;99039.34;2074088;28;20031;-49
2022/05/15 01:33:39;;;;;;;;;;;;;;;21.83;64.61;99042.06;2072149;28;19929;-49
2022/05/15 01:34:41;;;;;;;;;;;;;;;21.82;64.86;99032.31;2075003;28;19929;-50
2022/05/15 01:35:42;;;;;;;;;;;;;;;21.81;65.12;99038.72;2075704;28;19979;-48
2022/05/15 01:36:45;;;;;;;;;;;;;;;21.82;64.77;99032.31;2073003;28;19958;-51
2022/05/15 01:37:46;;;;;;;;;;;;;;;21.81;64.71;99036.88;2075173;28;20024;-49
2022/05/15 01:38:48;;;;;;;;;;;;;;;21.82;64.57;99029.59;2076143;28;19925;-50
2022/05/15 01:39:48;;;;;;;;;;;;;;;21.83;64.71;99036.66;2074024;28;19960;-48
2022/05/15 01:40:51;;;;;;;;;;;;;;;21.83;64.97;99039.34;2075858;28;20405;-49
2022/05/15 01:41:51;;;;;;;;;;;;;;;21.82;64.62;99032.31;2073286;28;20699;-49
2022/05/15 01:42:53;;;;;;;;;;;;;;;21.82;64.82;99029.59;2072361;28;19941;-48
2022/05/15 01:43:53;;;;;;;;;;;;;;;21.80;64.90;99029.00;2072630;28;19932;-49
2022/05/15 01:44:55;;;;;;;;;;;;;;;21.82;64.90;99026.91;2076005;28;20334;-49
2022/05/15 01:45:55;;;;;;;;;;;;;;;21.82;64.96;99033.13;2074164;28;19929;-49
2022/05/15 01:46:57;;;;;;;;;;;;;;;21.82;65.08;99026.91;2074303;28;19925;-50
2022/05/15 01:47:58;;;;;;;;;;;;;;;21.80;65.26;99031.69;2073719;28;19929;-50
2022/05/15 01:49:00;;;;;;;;;;;;;;;21.82;64.72;99026.91;2073042;28;19935;-50
2022/05/15 01:50:02;;;;;;;;;;;;;;;21.82;64.82;99026.91;2075176;28;19929;-50
2022/05/15 01:51:03;;;;;;;;;;;;;;;21.82;65.45;99026.91;2072782;28;19934;-50
2022/05/15 01:52:06;;;;;;;;;;;;;;;21.82;65.14;99032.31;2074394;28;19987;-49
2022/05/15 01:53:07;;;;;;;;;;;;;;;21.80;65.14;99024.41;2074690;28;19929;-49
2022/05/15 01:54:08;;;;;;;;;;;;;;;21.80;65.55;99024.41;2075877;28;20260;-49
2022/05/15 01:55:10;;;;;;;;;;;;;;;21.81;65.25;99025.22;2072862;28;19969;-49
2022/05/15 01:56:12;;;;;;;;;;;;;;;21.81;65.37;99019.84;2074597;28;19937;-52
2022/05/15 01:57:13;;;;;;;;;;;;;;;21.81;64.95;99026.09;2074436;28;19968;-49
2022/05/15 01:58:14;;;;;;;;;;;;;;;21.80;65.73;99027.09;2073431;28;20437;-48
2022/05/15 01:59:15;;;;;;;;;;;;;;;21.79;65.44;99016.53;2072112;28;19944;-47
2022/05/15 02:00:19;;;;;;;;;;;;;;;21.79;65.25;99022.75;2075638;28;19958;-50
2022/05/15 02:01:21;;;;;;;;;;;;;;;21.81;64.89;99020.69;2072552;28;19929;-50
2022/05/15 02:02:22;;;;;;;;;;;;;;;21.79;66.07;99022.75;2073928;28;19925;-50
2022/05/15 02:03:24;;;;;;;;;;;;;;;21.80;65.25;99016.31;2072562;28;19933;-47
2022/05/15 02:04:25;;;;;;;;;;;;;;;21.80;65.56;99015.50;2074117;28;20414;-49
2022/05/15 02:05:26;;;;;;;;;;;;;;;21.81;65.18;99019.84;2076323;28;19929;-49
2022/05/15 02:06:28;;;;;;;;;;;;;;;21.82;65.11;99021.50;2074678;28;20020;-49
2022/05/15 02:07:30;;;;;;;;;;;;;;;21.82;65.13;99022.34;2075204;28;20349;-49
2022/05/15 02:08:32;;;;;;;;;;;;;;;21.83;65.05;99023.16;2075117;28;19925;-47
2022/05/15 02:09:32;;;;;;;;;;;;;;;21.82;64.97;99021.50;2074115;28;20133;-49
2022/05/15 02:10:34;;;;;;;;;;;;;;;21.80;65.01;99023.59;2075301;28;20420;-47
2022/05/15 02:11:37;;;;;;;;;;;;;;;21.81;65.42;99022.53;2075551;28;20051;-49
2022/05/15 02:12:39;;;;;;;;;;;;;;;21.79;65.47;99022.75;2074135;28;19929;-49
2022/05/15 02:13:39;;;;;;;;;;;;;;;21.80;65.45;99024.41;2074665;28;19929;-49
2022/05/15 02:14:41;;;;;;;;;;;;;;;21.80;65.10;99021.72;2074399;28;20012;-49
2022/05/15 02:15:43;;;;;;;;;;;;;;;21.82;65.12;99018.81;2074532;28;19984;-49
2022/05/15 02:16:43;;;;;;;;;;;;;;;21.81;65.38;99020.69;2075767;28;20425;-50
2022/05/15 02:17:45;;;;;;;;;;;;;;;21.82;64.97;99019.63;2072698;28;19929;-50
2022/05/15 02:18:45;;;;;;;;;;;;;;;21.83;65.14;99020.44;2074819;28;19975;-49
2022/05/15 02:19:47;;;;;;;;;;;;;;;21.81;65.22;99020.69;2073816;28;19952;-50
2022/05/15 02:20:47;;;;;;;;;;;;;;;21.81;65.11;99019.84;2076140;28;19929;-49
2022/05/15 02:21:49;;;;;;;;;;;;;;;21.84;65.03;99019.41;2074168;28;20422;-50
2022/05/15 02:22:51;;;;;;;;;;;;;;;21.82;65.15;99016.94;2072665;28;19932;-49
2022/05/15 02:23:52;;;;;;;;;;;;;;;21.84;64.90;99019.41;2074721;28;19932;-51
2022/05/15 02:24:53;;;;;;;;;;;;;;;21.84;64.79;99014.00;2074466;28;19968;-47
2022/05/15 02:25:55;;;;;;;;;;;;;;;21.85;65.11;99021.06;2075695;28;19936;-49
2022/05/15 02:26:55;;;;;;;;;;;;;;;21.83;64.81;99013.19;2075794;28;19929;-50
2022/05/15 02:27:57;;;;;;;;;;;;;;;21.84;64.76;99019.41;2073997;28;20294;-49
2022/05/15 02:28:57;;;;;;;;;;;;;;;21.81;65.05;99020.69;2073243;28;19929;-48
2022/05/15 02:29:59;;;;;;;;;;;;;;;21.83;64.90;99021.28;2073896;28;19960;-49
2022/05/15 02:31:00;;;;;;;;;;;;;;;21.81;65.61;99026.09;2075888;28;19929;-50
2022/05/15 02:32:01;;;;;;;;;;;;;;;21.78;65.24;99015.69;2074745;28;20039;-50
2022/05/15 02:33:02;;;;;;;;;;;;;;;21.80;65.47;99021.72;2073711;28;19925;-50
2022/05/15 02:34:03;;;;;;;;;;;;;;;21.78;65.00;99026.50;2075583;28;19929;-49
2022/05/15 02:35:04;;;;;;;;;;;;;;;21.81;65.36;99025.22;2075763;28;19976;-50
2022/05/15 02:36:06;;;;;;;;;;;;;;;21.80;65.06;99016.31;2071999;28;19933;-51
2022/05/15 02:37:07;;;;;;;;;;;;;;;21.82;65.02;99016.94;2068970;28;19929;-49
2022/05/15 02:38:10;;;;;;;;;;;;;;;21.82;65.05;99025.03;2075438;28;19933;-49
2022/05/15 02:39:11;;;;;;;;;;;;;;;21.79;65.24;99011.97;2071032;28;19929;-49
2022/05/15 02:40:13;;;;;;;;;;;;;;;21.82;65.28;99010.72;2075549;28;19929;-52
2022/05/15 02:41:13;;;;;;;;;;;;;;;21.81;64.99;99003.63;2072364;28;20477;-50
2022/05/15 02:42:15;;;;;;;;;;;;;;;21.82;65.23;99010.72;2071923;28;19932;-53
2022/05/15 02:43:15;;;;;;;;;;;;;;;21.81;64.96;99009.88;2075842;28;19925;-54
2022/05/15 02:44:17;;;;;;;;;;;;;;;21.82;65.07;99014.22;2075329;28;19929;-55
2022/05/15 02:45:17;;;;;;;;;;;;;;;21.83;64.94;99009.66;2074606;28;19925;-54
2022/05/15 02:46:19;;;;;;;;;;;;;;;21.84;65.08;99005.91;2075402;28;20016;-53
2022/05/15 02:47:20;;;;;;;;;;;;;;;21.84;65.33;99009.44;2073922;28;20560;-50
2022/05/15 02:51:05;;;;;;;;;;;;;;;21.83;64.93;99013.19;2070543;28;20027;-49
2022/05/15 02:52:06;;;;;;;;;;;;;;;21.81;65.21;99007.19;2073713;28;19925;-53
2022/05/15 02:53:08;;;;;;;;;;;;;;;21.82;64.88;99008.84;2073418;28;20565;-54
2022/05/15 02:54:10;;;;;;;;;;;;;;;21.83;64.87;99015.06;2071095;28;19925;-54
2022/05/15 02:55:12;;;;;;;;;;;;;;;21.82;64.90;99011.53;2073439;28;19933;-53
2022/05/15 02:56:13;;;;;;;;;;;;;;;21.82;65.09;99006.13;2072683;28;19956;-51
2022/05/15 02:57:15;;;;;;;;;;;;;;;21.84;64.89;99011.28;2073583;28;19961;-49
2022/05/15 02:58:15;;;;;;;;;;;;;;;21.82;64.90;99006.13;2071091;28;20426;-52
2022/05/15 02:59:17;;;;;;;;;;;;;;;21.83;65.20;99012.34;2070132;28;19927;-51
2022/05/15 03:00:19;;;;;;;;;;;;;;;21.82;64.99;99013.41;2069534;28;19940;-52
2022/05/15 03:01:21;;;;;;;;;;;;;;;21.81;64.88;99009.03;2072612;28;19925;-50
2022/05/15 03:02:21;;;;;;;;;;;;;;;21.81;65.07;99017.13;2073565;28;19933;-49
2022/05/15 03:03:23;;;;;;;;;;;;;;;21.81;65.48;99011.72;2073495;28;20471;-53
2022/05/15 03:04:23;;;;;;;;;;;;;;;21.81;65.27;99012.59;2072450;28;19971;-49
2022/05/15 03:05:25;;;;;;;;;;;;;;;21.84;64.94;99016.69;2074340;28;20291;-51
2022/05/15 03:06:25;;;;;;;;;;;;;;;21.81;64.97;99014.44;2072718;28;19940;-51
2022/05/15 03:07:28;;;;;;;;;;;;;;;21.80;65.07;99008.22;2071875;28;20768;-52
2022/05/15 03:08:28;;;;;;;;;;;;;;;21.81;64.90;99011.72;2069410;28;19960;-53
2022/05/15 03:09:32;;;;;;;;;;;;;;;21.81;65.07;99012.59;2073740;28;19932;-49
2022/05/15 03:10:34;;;;;;;;;;;;;;;21.80;65.22;99010.09;2072853;28;19963;-53
2022/05/15 03:11:34;;;;;;;;;;;;;;;21.81;64.80;99006.34;2076613;28;20491;-53
2022/05/15 03:12:36;;;;;;;;;;;;;;;21.82;64.96;99014.22;2073292;28;19937;-50
2022/05/15 03:13:37;;;;;;;;;;;;;;;21.81;65.20;99019.84;2074130;28;20047;-54
2022/05/15 03:14:39;;;;;;;;;;;;;;;21.80;65.08;99010.09;2075331;28;20517;-52
2022/05/15 03:15:40;;;;;;;;;;;;;;;21.81;64.82;99011.72;2073265;28;20998;-52
2022/05/15 03:16:42;;;;;;;;;;;;;;;21.80;64.72;99016.31;2077339;28;19925;-53
2022/05/15 03:17:43;;;;;;;;;;;;;;;21.78;65.09;99009.47;2070046;28;19968;-53
2022/05/15 03:18:46;;;;;;;;;;;;;;;21.78;65.10;99015.69;2074941;28;19933;-50
2022/05/15 03:19:46;;;;;;;;;;;;;;;21.78;65.21;99009.47;2074046;28;19929;-54
2022/05/15 03:20:48;;;;;;;;;;;;;;;21.79;65.08;99016.53;2070522;28;20517;-51
2022/05/15 03:21:48;;;;;;;;;;;;;;;21.80;64.75;99018.19;2070950;28;19968;-49
2022/05/15 03:22:50;;;;;;;;;;;;;;;21.79;64.99;99019.25;2070318;28;21436;-54
2022/05/15 03:23:51;;;;;;;;;;;;;;;21.77;65.04;99013.22;2070979;28;19934;-50
2022/05/15 03:24:53;;;;;;;;;;;;;;;21.79;64.86;99017.38;2075093;28;20406;-54
2022/05/15 03:25:54;;;;;;;;;;;;;;;21.77;65.30;99014.03;2071280;28;19976;-51
2022/05/15 03:26:56;;;;;;;;;;;;;;;21.77;65.11;99018.63;2076281;28;20157;-53
2022/05/15 03:27:56;;;;;;;;;;;;;;;21.77;64.85;99019.44;2073197;28;20379;-54
2022/05/15 03:28:58;;;;;;;;;;;;;;;21.76;64.92;99015.09;2064383;28;19929;-50
2022/05/15 03:29:58;;;;;;;;;;;;;;;21.78;64.87;99012.16;2073079;28;20175;-49
2022/05/15 03:31:00;;;;;;;;;;;;;;;21.78;64.75;99017.56;2072707;28;19925;-49
2022/05/15 03:32:00;;;;;;;;;;;;;;;21.79;64.70;99011.97;2072989;28;19964;-51
2022/05/15 03:33:02;;;;;;;;;;;;;;;21.79;64.98;99016.53;2074003;28;19929;-51
2022/05/15 03:34:03;;;;;;;;;;;;;;;21.76;65.04;99012.41;2072327;28;20406;-53
2022/05/15 03:35:05;;;;;;;;;;;;;;;21.79;64.81;99008.44;2072923;28;19930;-54
2022/05/15 03:36:10;;;;;;;;;;;;;;;21.80;64.74;99013.59;2071781;28;20382;-49
2022/05/15 03:37:11;;;;;;;;;;;;;;;21.77;64.95;99013.22;2073740;28;19933;-50
2022/05/15 03:38:12;;;;;;;;;;;;;;;21.75;65.05;99013.41;2073787;28;19980;-52
2022/05/15 03:39:14;;;;;;;;;;;;;;;21.77;65.17;99016.75;2071251;28;19929;-52
2022/05/15 03:40:16;;;;;;;;;;;;;;;21.79;65.01;99016.53;2076696;28;19979;-50
2022/05/15 03:41:17;;;;;;;;;;;;;;;21.78;64.74;99015.69;2075398;28;19963;-52
2022/05/15 03:42:19;;;;;;;;;;;;;;;21.76;65.11;99007.00;2069974;28;19929;-49
2022/05/15 03:43:19;;;;;;;;;;;;;;;21.77;65.10;99014.03;2075438;28;20679;-50
2022/05/15 03:44:21;;;;;;;;;;;;;;;21.77;65.13;99015.91;2077118;28;19929;-47
2022/05/15 03:45:22;;;;;;;;;;;;;;;21.76;64.81;99004.28;2072140;28;20907;-53
2022/05/15 03:46:23;;;;;;;;;;;;;;;21.77;64.72;99010.53;2071817;28;19925;-52
2022/05/15 03:47:24;;;;;;;;;;;;;;;21.78;65.01;99002.19;2070878;28;19960;-52
2022/05/15 03:48:25;;;;;;;;;;;;;;;21.77;64.77;99007.81;2073009;28;19933;-53
2022/05/15 03:49:27;;;;;;;;;;;;;;;21.77;65.08;99005.94;2072224;28;19975;-49
2022/05/15 03:50:27;;;;;;;;;;;;;;;21.75;65.06;98999.91;2073990;28;19929;-51
2022/05/15 03:51:29;;;;;;;;;;;;;;;21.76;64.88;99006.19;2072687;28;19936;-53
2022/05/15 03:52:29;;;;;;;;;;;;;;;21.77;64.81;99007.81;2075807;28;19975;-53
2022/05/15 03:53:32;;;;;;;;;;;;;;;21.75;64.94;99005.31;2072568;28;19936;-52
2022/05/15 03:54:34;;;;;;;;;;;;;;;21.75;64.97;99005.31;2073222;28;19933;-53
2022/05/15 03:55:36;;;;;;;;;;;;;;;21.76;64.79;99006.19;2073488;28;19971;-51
2022/05/15 03:56:51;;;;;;;;;;;;;;;21.76;64.96;99007.00;2075457;28;19975;-52
2022/05/15 03:57:55;;;;;;;;;;;;;;;21.75;64.98;99013.41;2073622;28;19936;-52
2022/05/15 03:58:57;;;;;;;;;;;;;;;21.75;64.85;99010.72;2073907;28;19968;-51
2022/05/15 03:59:57;;;;;;;;;;;;;;;21.74;65.09;99013.66;2074393;28;19975;-52
2022/05/15 04:00:59;;;;;;;;;;;;;;;21.73;64.71;99011.97;2073380;28;19929;-51
2022/05/15 04:02:00;;;;;;;;;;;;;;;21.74;64.89;99013.66;2074874;28;20395;-52
2022/05/15 04:03:02;;;;;;;;;;;;;;;21.74;64.79;99019.06;2072286;28;19929;-52
2022/05/15 04:04:02;;;;;;;;;;;;;;;;;;2072822;28;19932;-48
2022/05/15 04:05:04;;;;;;;;;;;;;;;21.74;64.84;99008.25;2075917;28;19925;-52
2022/05/15 04:06:04;;;;;;;;;;;;;;;21.74;64.61;99014.47;2071279;28;19978;-53
2022/05/15 04:07:06;;;;;;;;;;;;;;;21.75;64.95;99009.91;2070248;28;20223;-52
2022/05/15 04:08:07;;;;;;;;;;;;;;;21.73;64.68;99011.97;2071751;28;19936;-53
2022/05/15 04:09:09;;;;;;;;;;;;;;;21.73;64.81;99003.88;2071794;28;20482;-53
2022/05/15 04:10:10;;;;;;;;;;;;;;;21.74;64.74;99013.66;2071251;28;19983;-50
2022/05/15 04:11:13;;;;;;;;;;;;;;;21.72;64.89;99007.63;2075987;28;19933;-51
2022/05/15 04:12:13;;;;;;;;;;;;;;;;;;2073818;28;19936;-54
2022/05/15 04:13:15;;;;;;;;;;;;;;;21.74;64.89;99009.06;2075152;28;19952;-48
2022/05/15 04:14:16;;;;;;;;;;;;;;;21.73;64.73;99001.19;2073416;28;19948;-54
2022/05/15 04:15:17;;;;;;;;;;;;;;;21.71;64.99;99004.09;2073951;28;19936;-48
2022/05/15 04:16:18;;;;;;;;;;;;;;;21.74;64.96;98997.44;2071857;28;19932;-54
2022/05/15 04:17:19;;;;;;;;;;;;;;;21.74;64.74;99005.56;2072330;28;19932;-51
2022/05/15 04:18:19;;;;;;;;;;;;;;;;;;2072742;28;19936;-52
2022/05/15 04:19:22;;;;;;;;;;;;;;;21.73;64.68;99009.28;2073908;28;20041;-50
2022/05/15 04:20:23;;;;;;;;;;;;;;;21.73;64.93;99007.44;2073089;28;19929;-52
2022/05/15 04:21:25;;;;;;;;;;;;;;;;;;2073743;28;20076;-49
2022/05/15 04:22:25;;;;;;;;;;;;;;;21.73;65.08;99003.88;2071287;28;19940;-50
2022/05/15 04:23:27;;;;;;;;;;;;;;;21.74;64.91;99013.66;2072123;28;19928;-52
2022/05/15 04:24:28;;;;;;;;;;;;;;;21.72;65.06;99015.72;2073082;28;19960;-50
2022/05/15 04:25:30;;;;;;;;;;;;;;;21.69;65.20;99005.38;2071429;28;19933;-49
2022/05/15 04:26:33;;;;;;;;;;;;;;;21.71;64.93;99008.69;2073813;28;19960;-51
2022/05/15 04:27:34;;;;;;;;;;;;;;;21.70;64.94;99013.22;2072808;28;20419;-51
2022/05/15 04:28:36;;;;;;;;;;;;;;;21.71;65.05;99008.69;2074538;28;19929;-50
2022/05/15 04:29:37;;;;;;;;;;;;;;;21.70;65.32;99015.09;2074514;28;19980;-51
2022/05/15 04:30:38;;;;;;;;;;;;;;;21.71;64.95;99020.31;2071469;28;19925;-52
2022/05/15 04:31:39;;;;;;;;;;;;;;;21.71;64.84;99014.09;2071414;28;20205;-53
2022/05/15 04:32:41;;;;;;;;;;;;;;;21.70;65.00;99013.22;2073768;28;19956;-51
2022/05/15 04:33:42;;;;;;;;;;;;;;;21.70;65.19;99012.41;2073554;28;19933;-50
2022/05/15 04:34:43;;;;;;;;;;;;;;;21.70;65.14;99009.72;2075724;28;19968;-54
2022/05/15 04:35:45;;;;;;;;;;;;;;;21.69;65.13;99016.97;2076525;28;19932;-53
2022/05/15 04:36:45;;;;;;;;;;;;;;;21.69;65.05;99006.19;2076222;28;19933;-49
2022/05/15 04:37:47;;;;;;;;;;;;;;;21.69;65.03;99006.19;2075141;28;19931;-52
2022/05/15 04:38:47;;;;;;;;;;;;;;;21.70;65.03;99015.09;2075977;28;19925;-52
2022/05/15 04:39:49;;;;;;;;;;;;;;;21.70;64.97;99009.72;2075135;28;19932;-52
2022/05/15 04:40:50;;;;;;;;;;;;;;;21.71;65.02;99009.50;2075917;28;20390;-53
2022/05/15 04:41:53;;;;;;;;;;;;;;;21.70;64.78;99012.41;2076602;28;19940;-51
2022/05/15 04:42:53;;;;;;;;;;;;;;;21.71;64.94;99012.22;2076217;28;19961;-52
2022/05/15 04:43:55;;;;;;;;;;;;;;;21.67;65.05;99010.97;2074363;28;19929;-52
2022/05/15 04:44:55;;;;;;;;;;;;;;;21.68;65.09;99012.63;2074472;28;19940;-53
2022/05/15 04:45:57;;;;;;;;;;;;;;;21.68;64.97;99011.81;2074295;28;20871;-52
2022/05/15 04:46:57;;;;;;;;;;;;;;;21.67;64.82;99008.25;2076711;28;19960;-49
2022/05/15 04:47:59;;;;;;;;;;;;;;;21.69;65.10;99011.59;2064591;28;19937;-52
2022/05/15 04:49:01;;;;;;;;;;;;;;;21.68;64.89;99009.13;2069144;28;19926;-50
2022/05/15 04:50:02;;;;;;;;;;;;;;;21.69;65.27;99010.75;2071389;28;19929;-52
2022/05/15 04:51:04;;;;;;;;;;;;;;;21.67;65.10;99002.03;2072412;28;19925;-53
2022/05/15 04:52:05;;;;;;;;;;;;;;;21.68;65.01;99009.13;2071376;28;19968;-54
2022/05/15 04:53:07;;;;;;;;;;;;;;;21.67;64.81;99002.88;2075195;28;19960;-51
2022/05/15 04:54:07;;;;;;;;;;;;;;;21.65;65.17;99013.06;2071765;28;19933;-51
2022/05/15 04:55:09;;;;;;;;;;;;;;;21.64;65.22;99012.22;2072754;28;20315;-51
2022/05/15 04:56:10;;;;;;;;;;;;;;;21.66;65.15;99011.19;2074923;28;20308;-52
2022/05/15 04:57:13;;;;;;;;;;;;;;;21.66;65.04;99012.03;2074205;28;20024;-51
2022/05/15 04:58:13;;;;;;;;;;;;;;;21.67;64.91;99020.94;2075970;28;19964;-54
2022/05/15 04:59:15;;;;;;;;;;;;;;;21.66;64.95;99014.72;2073736;28;19933;-51
2022/05/15 05:00:17;;;;;;;;;;;;;;;21.66;64.87;99011.19;2071758;28;20707;-52
2022/05/15 05:01:19;;;;;;;;;;;;;;;21.67;65.02;99015.53;2071277;28;19929;-52
2022/05/15 05:02:19;;;;;;;;;;;;;;;21.67;64.99;99023.63;2069750;28;19930;-53
2022/05/15 05:03:21;;;;;;;;;;;;;;;21.64;64.86;99008.69;2074439;28;19929;-55
2022/05/15 05:04:21;;;;;;;;;;;;;;;21.65;64.90;99015.78;2074064;28;19968;-51
2022/05/15 05:05:23;;;;;;;;;;;;;;;21.66;64.79;99016.59;2071034;28;19960;-52
2022/05/15 05:06:24;;;;;;;;;;;;;;;21.65;64.73;99021.16;2072392;28;19972;-52
2022/05/15 05:07:26;;;;;;;;;;;;;;;21.65;64.97;99015.78;2068873;28;19929;-50
2022/05/15 05:08:26;;;;;;;;;;;;;;;21.65;64.60;99018.47;2072873;28;20036;-52
2022/05/15 05:09:28;;;;;;;;;;;;;;;21.64;65.05;99014.91;2073400;28;19925;-53
2022/05/15 05:10:28;;;;;;;;;;;;;;;21.64;64.99;99025.72;2072634;28;20295;-52
2022/05/15 05:11:30;;;;;;;;;;;;;;;21.64;65.09;99022.19;2074191;28;19929;-52
2022/05/15 05:12:50;;;;;;;;;;;;;;;21.65;64.88;99018.47;2072287;28;19994;-53
2022/05/15 05:13:52;;;;;;;;;;;;;;;21.62;65.36;99019.72;2077042;28;19976;-54
2022/05/15 05:14:53;;;;;;;;;;;;;;;21.63;64.92;99024.06;2071623;28;19974;-49
2022/05/15 05:15:54;;;;;;;;;;;;;;;21.62;65.69;99017.03;2076297;28;19965;-53
2022/05/15 05:16:55;;;;;;;;;;;;;;;21.63;65.81;99020.56;2073022;28;19929;-50
2022/05/15 05:17:56;;;;;;;;;;;;;;;21.62;65.66;99016.19;2066313;28;19987;-52
2022/05/15 05:18:58;;;;;;;;;;;;;;;21.61;65.36;99014.53;2071957;28;20618;-48
2022/05/15 05:19:58;;;;;;;;;;;;;;;21.61;65.78;99020.75;2073279;28;20288;-49
2022/05/15 05:21:00;;;;;;;;;;;;;;;21.60;65.76;99024.50;2073214;28;19932;-52
2022/05/15 05:22:00;;;;;;;;;;;;;;;21.61;65.35;99019.94;2075029;28;19969;-50
2022/05/15 05:23:02;;;;;;;;;;;;;;;21.62;65.29;99021.59;2073139;28;20411;-51
2022/05/15 05:24:02;;;;;;;;;;;;;;;21.63;65.19;99023.25;2072279;28;19925;-51